createdAt,value
2018-06-05T00:00:34.503Z,18.70
2018-06-05T00:03:03.423Z,18.70
2018-06-05T00:05:32.807Z,18.70
2018-06-05T00:08:01.892Z,18.70
2018-06-05T00:10:31.236Z,18.70
2018-06-05T00:13:00.227Z,18.70
2018-06-05T00:15:29.564Z,18.70
2018-06-05T00:17:58.435Z,18.70
2018-06-05T00:20:27.296Z,18.60
2018-06-05T00:22:56.136Z,18.70
2018-06-05T00:25:24.979Z,18.70
2018-06-05T00:27:53.806Z,18.70
2018-06-05T00:30:22.623Z,18.60
2018-06-05T00:32:51.452Z,18.60
2018-06-05T00:35:20.275Z,18.60
2018-06-05T00:37:49.388Z,18.60
2018-06-05T00:40:18.212Z,18.60
2018-06-05T00:42:47.065Z,18.60
2018-06-05T00:45:16.587Z,18.60
2018-06-05T00:47:46.035Z,18.50
2018-06-05T00:50:14.896Z,18.50
2018-06-05T00:52:43.736Z,18.50
2018-06-05T00:57:41.263Z,18.40
2018-06-05T01:00:10.088Z,18.50
2018-06-05T01:05:08.249Z,18.40
2018-06-05T01:07:37.524Z,18.40
2018-06-05T01:10:06.851Z,18.40
2018-06-05T01:12:35.727Z,18.40
2018-06-05T01:15:04.586Z,18.40
2018-06-05T01:17:33.421Z,18.40
2018-06-05T01:20:02.276Z,18.30
2018-06-05T01:22:31.136Z,18.30
2018-06-05T01:24:59.974Z,18.30
2018-06-05T01:27:28.816Z,18.30
2018-06-05T01:29:57.628Z,18.30
2018-06-05T01:32:26.463Z,18.30
2018-06-05T01:34:55.315Z,18.20
2018-06-05T01:37:24.135Z,18.20
2018-06-05T01:39:52.979Z,18.20
2018-06-05T01:42:21.823Z,18.20
2018-06-05T01:44:50.632Z,18.10
2018-06-05T01:47:19.483Z,18.10
2018-06-05T01:49:48.306Z,18.10
2018-06-05T01:52:17.157Z,18.10
2018-06-05T01:54:46.036Z,18.10
2018-06-05T01:57:14.887Z,18.10
2018-06-05T01:59:43.700Z,18.10
2018-06-05T02:02:12.570Z,18.10
2018-06-05T02:04:41.407Z,18.10
2018-06-05T02:08:34.743Z,18.10
2018-06-05T02:11:03.575Z,18.10
2018-06-05T02:13:32.443Z,18.00
2018-06-05T02:16:01.298Z,18.00
2018-06-05T02:18:30.139Z,18.10
2018-06-05T02:20:58.992Z,18.00
2018-06-05T02:26:00.308Z,18.00
2018-06-05T02:28:29.163Z,18.00
2018-06-05T02:30:58.003Z,18.00
2018-06-05T02:33:26.826Z,18.00
2018-06-05T02:35:55.684Z,18.00
2018-06-05T02:38:24.543Z,18.00
2018-06-05T02:40:53.344Z,18.00
2018-06-05T02:43:22.188Z,18.00
2018-06-05T02:45:51.231Z,18.00
2018-06-05T02:48:20.039Z,18.00
2018-06-05T02:50:48.913Z,18.10
2018-06-05T02:53:18.059Z,18.10
2018-06-05T02:55:49.030Z,18.00
2018-06-05T02:58:17.838Z,18.00
2018-06-05T03:00:47.357Z,18.00
2018-06-05T03:03:16.183Z,18.00
2018-06-05T03:05:45.004Z,18.00
2018-06-05T03:08:13.851Z,18.00
2018-06-05T03:10:42.693Z,18.10
2018-06-05T03:13:11.543Z,18.10
2018-06-05T03:15:40.351Z,18.10
2018-06-05T03:18:09.183Z,18.10
2018-06-05T03:20:38.028Z,18.10
2018-06-05T03:23:06.880Z,18.20
2018-06-05T03:25:35.802Z,18.20
2018-06-05T03:28:04.663Z,18.20
2018-06-05T03:30:33.547Z,18.20
2018-06-05T03:33:02.422Z,18.20
2018-06-05T03:35:31.483Z,18.20
2018-06-05T03:38:00.906Z,18.20
2018-06-05T03:42:58.484Z,18.20
2018-06-05T03:45:27.350Z,18.20
2018-06-05T03:52:54.707Z,18.20
2018-06-05T03:55:23.507Z,18.20
2018-06-05T04:00:21.935Z,18.30
2018-06-05T04:02:51.079Z,18.30
2018-06-05T04:07:48.655Z,18.30
2018-06-05T04:12:46.587Z,18.40
2018-06-05T04:15:15.806Z,18.40
2018-06-05T04:17:44.716Z,18.30
2018-06-05T04:20:14.020Z,18.40
2018-06-05T04:22:43.012Z,18.40
2018-06-05T04:30:09.742Z,18.50
2018-06-05T04:35:07.456Z,18.50
2018-06-05T04:37:36.336Z,18.50
2018-06-05T04:42:33.959Z,18.60
2018-06-05T04:45:02.840Z,18.60
2018-06-05T04:47:31.733Z,18.60
2018-06-05T04:50:00.665Z,18.60
2018-06-05T04:54:59.736Z,18.70
2018-06-05T05:04:28.870Z,18.80
2018-06-05T05:06:57.731Z,18.80
2018-06-05T05:11:55.323Z,18.90
2018-06-05T05:14:24.607Z,18.90
2018-06-05T05:16:53.467Z,18.90
2018-06-05T05:19:22.334Z,18.90
2018-06-05T05:21:51.211Z,18.90
2018-06-05T05:24:20.831Z,18.80
2018-06-05T05:26:49.714Z,18.80
2018-06-05T05:29:18.551Z,18.80
2018-06-05T05:31:48.311Z,18.90
2018-06-05T05:34:17.772Z,19.00
2018-06-05T05:36:46.703Z,19.00
2018-06-05T05:39:15.615Z,19.10
2018-06-05T05:41:44.480Z,19.10
2018-06-05T05:44:13.407Z,19.20
2018-06-05T05:46:42.263Z,19.20
2018-06-05T05:49:11.108Z,19.20
2018-06-05T05:51:39.979Z,19.30
2018-06-05T05:54:08.832Z,19.40
2018-06-05T05:59:06.736Z,19.50
2018-06-05T06:01:35.638Z,19.50
2018-06-05T06:04:04.660Z,19.50
2018-06-05T06:06:33.548Z,19.50
2018-06-05T06:09:02.536Z,19.50
2018-06-05T06:11:31.404Z,19.60
2018-06-05T06:14:00.291Z,19.60
2018-06-05T06:16:32.884Z,19.60
2018-06-05T06:19:01.755Z,19.60
2018-06-05T06:21:30.652Z,19.70
2018-06-05T06:23:59.557Z,19.70
2018-06-05T06:28:57.720Z,19.80
2018-06-05T06:31:26.593Z,19.80
2018-06-05T06:33:55.468Z,19.80
2018-06-05T06:36:24.824Z,19.90
2018-06-05T06:38:54.020Z,19.90
2018-06-05T06:43:51.655Z,20.00
2018-06-05T06:48:49.265Z,20.10
2018-06-05T06:51:18.134Z,20.20
2018-06-05T06:56:16.099Z,20.30
2018-06-05T07:01:15.012Z,20.40
2018-06-05T07:03:43.867Z,20.40
2018-06-05T07:06:12.719Z,20.50
2018-06-05T07:08:41.563Z,20.50
2018-06-05T07:11:10.458Z,20.60
2018-06-05T07:13:39.656Z,20.70
2018-06-05T07:16:08.505Z,20.70
2018-06-05T07:18:37.356Z,20.70
2018-06-05T07:23:35.264Z,20.90
2018-06-05T07:26:04.175Z,20.90
2018-06-05T07:28:33.025Z,20.90
2018-06-05T07:31:01.894Z,21.00
2018-06-05T07:38:28.075Z,21.20
2018-06-05T07:40:57.523Z,21.20
2018-06-05T07:43:26.376Z,21.30
2018-06-05T07:45:55.223Z,21.40
2018-06-05T07:48:24.103Z,21.40
2018-06-05T07:50:52.967Z,21.50
2018-06-05T07:55:50.911Z,21.70
2018-06-05T08:00:48.495Z,21.90
2018-06-05T08:03:17.348Z,21.90
2018-06-05T08:05:46.200Z,22.00
2018-06-05T08:08:15.064Z,22.00
2018-06-05T08:10:43.924Z,22.10
2018-06-05T08:13:13.474Z,22.10
2018-06-05T08:15:42.338Z,22.20
2018-06-05T08:18:11.411Z,22.20
2018-06-05T08:20:40.276Z,22.40
2018-06-05T08:23:09.143Z,22.60
2018-06-05T08:25:38.010Z,22.50
2018-06-05T08:28:06.946Z,22.50
2018-06-05T08:30:35.828Z,22.70
2018-06-05T08:35:33.808Z,22.90
2018-06-05T08:38:02.700Z,23.00
2018-06-05T08:40:31.554Z,23.00
2018-06-05T08:43:00.411Z,23.10
2018-06-05T08:45:29.571Z,23.10
2018-06-05T08:47:58.463Z,23.10
2018-06-05T08:50:27.523Z,23.20
2018-06-05T08:55:25.434Z,23.20
2018-06-05T08:57:54.270Z,23.20
2018-06-05T09:00:23.124Z,23.20
2018-06-05T09:02:52.339Z,23.20
2018-06-05T09:05:21.215Z,23.20
2018-06-05T09:07:50.089Z,23.30
2018-06-05T09:10:18.933Z,23.40
2018-06-05T09:12:47.870Z,23.50
2018-06-05T09:17:45.515Z,23.60
2018-06-05T09:20:14.381Z,23.50
2018-06-05T09:22:43.235Z,23.60
2018-06-05T09:25:12.114Z,23.90
2018-06-05T09:27:41.003Z,24.00
2018-06-05T09:30:09.876Z,24.10
2018-06-05T09:32:38.771Z,24.00
2018-06-05T09:35:07.656Z,24.20
2018-06-05T09:37:36.595Z,24.30
2018-06-05T09:40:05.465Z,24.20
2018-06-05T09:42:34.378Z,24.20
2018-06-05T09:45:03.315Z,24.30
2018-06-05T09:47:32.179Z,24.40
2018-06-05T09:50:01.070Z,24.50
2018-06-05T09:52:29.943Z,24.60
2018-06-05T09:54:58.795Z,24.60
2018-06-05T09:57:27.710Z,24.60
2018-06-05T09:59:56.592Z,24.50
2018-06-05T10:02:25.451Z,24.70
2018-06-05T10:04:54.310Z,25.00
2018-06-05T10:07:23.178Z,25.00
2018-06-05T10:09:52.012Z,25.20
2018-06-05T10:14:49.651Z,25.30
2018-06-05T10:17:19.156Z,25.40
2018-06-05T10:19:48.028Z,25.40
2018-06-05T10:22:16.911Z,25.50
2018-06-05T10:24:45.799Z,25.40
2018-06-05T10:27:14.659Z,25.30
2018-06-05T10:29:50.278Z,25.30
2018-06-05T10:32:19.155Z,25.40
2018-06-05T10:34:48.020Z,25.50
2018-06-05T10:37:16.907Z,25.40
2018-06-05T10:39:45.765Z,25.30
2018-06-05T10:42:14.637Z,25.30
2018-06-05T10:44:43.526Z,25.20
2018-06-05T10:47:12.435Z,25.20
2018-06-05T10:49:41.296Z,25.10
2018-06-05T10:52:10.175Z,25.20
2018-06-05T10:54:39.024Z,25.30
2018-06-05T10:57:07.920Z,25.30
2018-06-05T10:59:36.806Z,25.60
2018-06-05T11:02:05.843Z,25.60
2018-06-05T11:04:34.682Z,25.80
2018-06-05T11:07:03.575Z,26.00
2018-06-05T11:09:32.427Z,26.10
2018-06-05T11:12:01.299Z,26.20
2018-06-05T11:14:30.135Z,26.30
2018-06-05T11:16:59.007Z,26.30
2018-06-05T11:19:27.891Z,26.20
2018-06-05T11:21:56.760Z,26.10
2018-06-05T11:24:25.684Z,26.10
2018-06-05T11:26:54.548Z,26.20
2018-06-05T11:29:23.432Z,26.00
2018-06-05T11:31:52.300Z,26.00
2018-06-05T11:34:21.150Z,26.00
2018-06-05T11:36:50.098Z,26.00
2018-06-05T11:39:18.924Z,26.20
2018-06-05T11:41:47.798Z,26.40
2018-06-05T11:44:16.698Z,26.50
2018-06-05T11:46:45.567Z,26.60
2018-06-05T11:49:14.408Z,26.60
2018-06-05T11:51:43.232Z,26.70
2018-06-05T11:54:12.187Z,26.90
2018-06-05T11:56:41.044Z,26.90
2018-06-05T11:59:09.895Z,27.00
2018-06-05T12:01:38.752Z,27.10
2018-06-05T12:04:07.609Z,27.10
2018-06-05T12:06:36.496Z,27.10
2018-06-05T12:09:07.335Z,27.10
2018-06-05T12:11:36.163Z,27.20
2018-06-05T12:14:05.047Z,27.20
2018-06-05T12:19:02.757Z,27.40
2018-06-05T12:21:31.699Z,27.40
2018-06-05T12:24:00.842Z,27.30
2018-06-05T12:26:30.008Z,27.30
2018-06-05T12:28:58.878Z,27.20
2018-06-05T12:31:27.761Z,27.40
2018-06-05T12:33:56.623Z,27.40
2018-06-05T12:36:25.491Z,27.50
2018-06-05T12:38:54.367Z,27.60
2018-06-05T12:41:23.204Z,27.90
2018-06-05T12:43:52.054Z,27.90
2018-06-05T12:46:20.936Z,28.00
2018-06-05T12:48:49.804Z,28.00
2018-06-05T12:51:18.647Z,28.00
2018-06-05T12:53:47.483Z,27.90
2018-06-05T12:56:16.521Z,27.70
2018-06-05T12:58:45.378Z,27.70
2018-06-05T13:03:43.838Z,27.70
2018-06-05T13:06:12.679Z,27.80
2018-06-05T13:08:41.571Z,28.00
2018-06-05T13:11:10.457Z,28.00
2018-06-05T13:13:39.314Z,28.10
2018-06-05T13:16:08.147Z,28.20
2018-06-05T13:18:36.996Z,28.10
2018-06-05T13:21:05.943Z,28.20
2018-06-05T13:23:34.847Z,28.30
2018-06-05T13:26:03.746Z,28.50
2018-06-05T13:28:33.159Z,28.70
2018-06-05T13:31:02.052Z,28.90
2018-06-05T13:33:30.887Z,29.10
2018-06-05T13:35:59.755Z,29.00
2018-06-05T13:40:57.417Z,29.40
2018-06-05T13:43:26.296Z,29.50
2018-06-05T13:45:55.167Z,29.70
2018-06-05T13:48:24.012Z,29.90
2018-06-05T13:53:21.608Z,29.90
2018-06-05T13:58:19.273Z,29.90
2018-06-05T14:03:16.888Z,30.20
2018-06-05T14:05:46.699Z,30.30
2018-06-05T14:08:15.591Z,30.30
2018-06-05T14:10:44.450Z,30.10
2018-06-05T14:13:14.362Z,29.90
2018-06-05T14:15:43.271Z,29.60
2018-06-05T14:18:12.458Z,29.40
2018-06-05T14:20:41.355Z,29.20
2018-06-05T14:23:10.199Z,29.00
2018-06-05T14:25:39.055Z,28.80
2018-06-05T14:28:07.932Z,28.60
2018-06-05T14:30:36.815Z,28.40
2018-06-05T14:33:05.695Z,28.20
2018-06-05T14:35:34.525Z,28.10
2018-06-05T14:38:03.380Z,27.90
2018-06-05T14:40:32.239Z,27.70
2018-06-05T14:43:01.104Z,27.60
2018-06-05T14:45:29.976Z,27.50
2018-06-05T14:47:58.822Z,27.40
2018-06-05T14:50:27.728Z,27.20
2018-06-05T14:52:56.596Z,27.10
2018-06-05T14:55:25.461Z,27.10
2018-06-05T15:00:23.063Z,26.80
2018-06-05T15:02:51.940Z,26.60
2018-06-05T15:05:20.924Z,26.50
2018-06-05T15:07:49.795Z,26.50
2018-06-05T15:10:18.675Z,26.50
2018-06-05T15:12:47.563Z,26.50
2018-06-05T15:15:16.431Z,26.10
2018-06-05T15:17:45.348Z,26.20
2018-06-05T15:20:14.189Z,26.30
2018-06-05T15:22:43.071Z,26.20
2018-06-05T15:25:11.907Z,26.10
2018-06-05T15:27:40.817Z,26.00
2018-06-05T15:30:09.683Z,26.10
2018-06-05T15:32:38.563Z,26.10
2018-06-05T15:35:07.416Z,26.10
2018-06-05T15:40:05.184Z,25.80
2018-06-05T15:42:34.047Z,25.80
2018-06-05T15:45:02.985Z,25.80
2018-06-05T15:47:31.865Z,25.80
2018-06-05T15:50:00.704Z,25.50
2018-06-05T15:52:29.603Z,25.30
2018-06-05T15:54:58.467Z,25.10
2018-06-05T15:57:27.396Z,25.00
2018-06-05T15:59:56.620Z,25.00
2018-06-05T16:02:25.594Z,25.20
2018-06-05T16:04:54.514Z,25.20
2018-06-05T16:07:23.388Z,25.50
2018-06-05T16:09:52.300Z,25.50
2018-06-05T16:12:21.167Z,25.50
2018-06-05T16:14:50.255Z,25.50
2018-06-05T16:19:47.899Z,25.40
2018-06-05T16:22:16.921Z,25.40
2018-06-05T16:24:45.819Z,25.40
2018-06-05T16:27:14.720Z,25.30
2018-06-05T16:29:43.588Z,25.20
2018-06-05T16:32:12.462Z,25.20
2018-06-05T16:34:41.331Z,25.20
2018-06-05T16:37:10.203Z,25.10
2018-06-05T16:39:39.056Z,25.00
2018-06-05T16:42:07.963Z,24.90
2018-06-05T16:44:36.787Z,24.80
2018-06-05T16:47:05.643Z,24.80
2018-06-05T16:49:34.884Z,24.90
2018-06-05T16:52:03.931Z,24.90
2018-06-05T16:57:01.531Z,24.80
2018-06-05T16:59:30.601Z,24.90
2018-06-05T17:04:28.348Z,24.70
2018-06-05T17:07:00.203Z,24.60
2018-06-05T17:09:29.324Z,24.50
2018-06-05T17:11:58.272Z,24.40
2018-06-05T17:14:27.123Z,24.40
2018-06-05T17:16:56.057Z,24.50
2018-06-05T17:19:24.955Z,24.40
2018-06-05T17:21:53.819Z,24.20
2018-06-05T17:24:22.691Z,24.20
2018-06-05T17:29:20.730Z,24.20
2018-06-05T17:31:49.604Z,24.20
2018-06-05T17:34:18.485Z,24.20
2018-06-05T17:36:47.393Z,24.20
2018-06-05T17:39:16.258Z,24.20
2018-06-05T17:41:45.172Z,24.10
2018-06-05T17:44:14.051Z,24.10
2018-06-05T17:46:42.943Z,24.00
2018-06-05T17:49:11.802Z,24.00
2018-06-05T17:51:42.386Z,24.00
2018-06-05T17:54:11.283Z,23.90
2018-06-05T17:56:40.159Z,23.90
2018-06-05T17:59:09.152Z,24.00
2018-06-05T18:01:37.992Z,24.10
2018-06-05T18:04:06.844Z,24.10
2018-06-05T18:06:35.727Z,24.10
2018-06-05T18:09:07.480Z,24.10
2018-06-05T18:11:36.384Z,24.00
2018-06-05T18:14:05.253Z,23.90
2018-06-05T18:16:34.216Z,23.90
2018-06-05T18:19:03.104Z,23.80
2018-06-05T18:21:31.993Z,23.80
2018-06-05T18:24:00.911Z,23.70
2018-06-05T18:26:29.775Z,23.70
2018-06-05T18:31:27.428Z,23.60
2018-06-05T18:36:25.128Z,23.50
2018-06-05T18:41:23.096Z,23.40
2018-06-05T18:43:51.951Z,23.40
2018-06-05T18:46:20.877Z,23.20
2018-06-05T18:51:19.307Z,23.10
2018-06-05T18:53:48.820Z,23.10
2018-06-05T18:56:17.687Z,23.00
2018-06-05T18:58:47.196Z,22.90
2018-06-05T19:01:16.159Z,22.90
2018-06-05T19:03:46.342Z,22.80
2018-06-05T19:06:15.300Z,22.70
2018-06-05T19:08:44.857Z,22.70
2018-06-05T19:11:15.596Z,22.60
2018-06-05T19:13:44.768Z,22.50
2018-06-05T19:16:13.926Z,22.50
2018-06-05T19:21:12.651Z,22.50
2018-06-05T19:26:11.136Z,22.40
2018-06-05T19:28:40.083Z,22.30
2018-06-05T19:31:10.175Z,22.30
2018-06-05T19:33:39.144Z,22.20
2018-06-05T19:38:37.890Z,22.10
2018-06-05T19:41:07.811Z,22.10
2018-06-05T19:43:37.930Z,22.10
2018-06-05T19:46:07.030Z,22.10
2018-06-05T19:48:39.257Z,22.00
2018-06-05T19:51:08.448Z,22.00
2018-06-05T19:53:37.347Z,22.00
2018-06-05T19:56:07.201Z,22.00
2018-06-05T19:58:36.103Z,21.90
2018-06-05T20:01:05.296Z,21.90
2018-06-05T20:06:03.318Z,21.80
2018-06-05T20:08:32.513Z,21.70
2018-06-05T20:13:30.412Z,21.70
2018-06-05T20:15:59.440Z,21.60
2018-06-05T20:18:28.809Z,21.60
2018-06-05T20:20:57.712Z,21.50
2018-06-05T20:23:27.150Z,21.40
2018-06-05T20:25:56.084Z,21.30
2018-06-05T20:28:25.271Z,21.40
2018-06-05T20:30:54.480Z,21.40
2018-06-05T20:33:23.371Z,21.40
2018-06-05T20:35:52.219Z,21.40
2018-06-05T20:38:21.743Z,21.30
2018-06-05T20:43:20.569Z,21.20
2018-06-05T20:45:49.915Z,21.10
2018-06-05T20:48:18.824Z,21.10
2018-06-05T20:55:46.414Z,21.10
2018-06-05T20:58:15.496Z,21.00
2018-06-05T21:00:44.461Z,21.00
2018-06-05T21:03:13.383Z,20.90
2018-06-05T21:05:42.947Z,21.00
2018-06-05T21:08:11.908Z,20.90
2018-06-05T21:10:40.949Z,20.90
2018-06-05T21:13:09.847Z,20.80
2018-06-05T21:15:38.705Z,20.80
2018-06-05T21:18:07.579Z,20.80
2018-06-05T21:20:37.043Z,20.80
2018-06-05T21:23:06.084Z,20.70
2018-06-05T21:25:35.115Z,20.80
2018-06-05T21:28:04.226Z,20.80
2018-06-05T21:30:33.115Z,20.70
2018-06-05T21:33:01.982Z,20.60
2018-06-05T21:35:30.827Z,20.50
2018-06-05T21:37:59.697Z,20.60
2018-06-05T21:42:57.302Z,20.50
2018-06-05T21:45:26.172Z,20.50
2018-06-05T21:47:55.064Z,20.50
2018-06-05T21:55:21.484Z,20.40
2018-06-05T21:57:50.344Z,20.40
2018-06-05T22:00:22.070Z,20.40
2018-06-05T22:05:19.659Z,20.40
2018-06-05T22:07:48.553Z,20.40
2018-06-05T22:10:17.400Z,20.30
2018-06-05T22:17:43.966Z,20.30
2018-06-05T22:20:12.863Z,20.30
2018-06-05T22:22:41.797Z,20.40
2018-06-05T22:25:10.763Z,20.40
2018-06-05T22:27:39.719Z,20.30
2018-06-05T22:30:08.684Z,20.30
2018-06-05T22:32:44.452Z,20.30
2018-06-05T22:35:13.364Z,20.30
2018-06-05T22:37:42.284Z,20.30
2018-06-05T22:42:40.331Z,20.20
2018-06-05T22:45:09.239Z,20.20
2018-06-05T22:50:07.335Z,20.20
2018-06-05T22:52:36.250Z,20.20
2018-06-05T22:55:05.310Z,20.20
2018-06-05T22:57:34.359Z,20.20
2018-06-05T23:00:03.338Z,20.20
2018-06-05T23:02:32.183Z,20.20
2018-06-05T23:05:01.047Z,20.20
2018-06-05T23:07:29.925Z,20.20
2018-06-05T23:09:58.767Z,20.20
2018-06-05T23:12:27.651Z,20.10
2018-06-05T23:14:56.624Z,20.10
2018-06-05T23:17:25.515Z,20.10
2018-06-05T23:19:54.362Z,20.10
2018-06-05T23:22:23.170Z,20.10
2018-06-05T23:24:52.008Z,20.10
2018-06-05T23:27:20.871Z,20.10
2018-06-05T23:29:49.736Z,20.10
2018-06-05T23:32:18.658Z,20.10
2018-06-05T23:34:47.454Z,20.10
2018-06-05T23:37:16.313Z,20.10
2018-06-05T23:39:45.151Z,20.10
2018-06-05T23:42:14.019Z,20.10
2018-06-05T23:44:42.874Z,20.10
2018-06-05T23:47:11.728Z,20.10
2018-06-05T23:49:40.610Z,20.10
2018-06-05T23:52:09.499Z,20.00
2018-06-05T23:54:38.363Z,20.10
2018-06-05T23:57:07.214Z,20.00
2018-06-05T23:59:36.275Z,20.00
